sensor_id;sensor_type;location;lat;lon;timestamp;P1;durP1;ratioP1;P2;durP2;ratioP2
41966;SDS011;27656;53.068;8.818;2022-08-19T00:01:23;14.90;;;8.30;;
41966;SDS011;27656;53.068;8.818;2022-08-19T00:03:56;15.07;;;8.33;;
41966;SDS011;27656;53.068;8.818;2022-08-19T00:06:23;10.43;;;7.60;;
41966;SDS011;27656;53.068;8.818;2022-08-19T00:08:50;10.23;;;7.37;;
41966;SDS011;27656;53.068;8.818;2022-08-19T00:11:17;12.10;;;7.60;;
41966;SDS011;27656;53.068;8.818;2022-08-19T00:13:51;11.57;;;7.77;;
41966;SDS011;27656;53.068;8.818;2022-08-19T00:16:17;11.73;;;8.20;;
41966;SDS011;27656;53.068;8.818;2022-08-19T00:18:52;12.00;;;7.67;;
41966;SDS011;27656;53.068;8.818;2022-08-19T00:21:19;15.27;;;8.93;;
41966;SDS011;27656;53.068;8.818;2022-08-19T00:23:46;17.70;;;9.57;;
41966;SDS011;27656;53.068;8.818;2022-08-19T00:26:12;17.87;;;8.50;;
41966;SDS011;27656;53.068;8.818;2022-08-19T00:28:39;12.80;;;8.93;;
41966;SDS011;27656;53.068;8.818;2022-08-19T00:31:06;12.53;;;8.30;;
41966;SDS011;27656;53.068;8.818;2022-08-19T00:33:33;11.20;;;7.77;;
41966;SDS011;27656;53.068;8.818;2022-08-19T00:36:00;14.53;;;8.17;;
41966;SDS011;27656;53.068;8.818;2022-08-19T00:38:33;18.23;;;8.53;;
41966;SDS011;27656;53.068;8.818;2022-08-19T00:41:04;14.40;;;8.07;;
41966;SDS011;27656;53.068;8.818;2022-08-19T00:43:31;18.47;;;8.90;;
41966;SDS011;27656;53.068;8.818;2022-08-19T00:45:58;14.17;;;9.33;;
41966;SDS011;27656;53.068;8.818;2022-08-19T00:48:25;13.07;;;9.23;;
41966;SDS011;27656;53.068;8.818;2022-08-19T00:50:51;14.37;;;8.80;;
41966;SDS011;27656;53.068;8.818;2022-08-19T00:53:20;18.97;;;9.03;;
41966;SDS011;27656;53.068;8.818;2022-08-19T00:55:50;13.00;;;8.80;;
41966;SDS011;27656;53.068;8.818;2022-08-19T00:58:19;19.57;;;11.47;;
41966;SDS011;27656;53.068;8.818;2022-08-19T01:00:47;20.83;;;10.70;;
41966;SDS011;27656;53.068;8.818;2022-08-19T01:03:15;19.43;;;11.13;;
41966;SDS011;27656;53.068;8.818;2022-08-19T01:05:44;17.43;;;10.07;;
41966;SDS011;27656;53.068;8.818;2022-08-19T01:08:13;16.23;;;9.83;;
41966;SDS011;27656;53.068;8.818;2022-08-19T01:10:54;20.63;;;11.33;;
41966;SDS011;27656;53.068;8.818;2022-08-19T01:13:23;16.53;;;10.97;;
41966;SDS011;27656;53.068;8.818;2022-08-19T01:15:53;16.57;;;9.93;;
41966;SDS011;27656;53.068;8.818;2022-08-19T01:18:22;17.67;;;10.33;;
41966;SDS011;27656;53.068;8.818;2022-08-19T01:20:49;17.90;;;11.13;;
41966;SDS011;27656;53.068;8.818;2022-08-19T01:23:17;19.47;;;11.70;;
41966;SDS011;27656;53.068;8.818;2022-08-19T01:25:46;16.13;;;9.77;;
41966;SDS011;27656;53.068;8.818;2022-08-19T01:28:23;16.23;;;8.93;;
41966;SDS011;27656;53.068;8.818;2022-08-19T01:31:08;13.97;;;9.13;;
41966;SDS011;27656;53.068;8.818;2022-08-19T01:33:53;13.23;;;7.80;;
41966;SDS011;27656;53.068;8.818;2022-08-19T01:36:26;15.17;;;8.07;;
41966;SDS011;27656;53.068;8.818;2022-08-19T01:38:54;14.00;;;10.07;;
41966;SDS011;27656;53.068;8.818;2022-08-19T01:41:22;18.37;;;11.00;;
41966;SDS011;27656;53.068;8.818;2022-08-19T01:43:50;16.13;;;10.00;;
41966;SDS011;27656;53.068;8.818;2022-08-19T01:46:38;19.47;;;10.20;;
41966;SDS011;27656;53.068;8.818;2022-08-19T01:49:05;14.20;;;10.10;;
41966;SDS011;27656;53.068;8.818;2022-08-19T01:51:33;18.47;;;10.00;;
41966;SDS011;27656;53.068;8.818;2022-08-19T01:54:05;16.90;;;10.43;;
41966;SDS011;27656;53.068;8.818;2022-08-19T01:56:35;13.20;;;9.17;;
41966;SDS011;27656;53.068;8.818;2022-08-19T01:59:03;15.27;;;9.90;;
41966;SDS011;27656;53.068;8.818;2022-08-19T02:01:31;14.07;;;9.33;;
41966;SDS011;27656;53.068;8.818;2022-08-19T02:03:58;14.90;;;10.20;;
41966;SDS011;27656;53.068;8.818;2022-08-19T02:06:27;15.00;;;9.10;;
41966;SDS011;27656;53.068;8.818;2022-08-19T02:08:54;13.97;;;9.33;;
41966;SDS011;27656;53.068;8.818;2022-08-19T02:11:24;19.87;;;9.90;;
41966;SDS011;27656;53.068;8.818;2022-08-19T02:13:53;16.27;;;10.23;;
41966;SDS011;27656;53.068;8.818;2022-08-19T02:16:20;19.97;;;11.13;;
41966;SDS011;27656;53.068;8.818;2022-08-19T02:18:47;19.40;;;10.83;;
41966;SDS011;27656;53.068;8.818;2022-08-19T02:21:17;17.90;;;10.43;;
41966;SDS011;27656;53.068;8.818;2022-08-19T02:23:45;17.40;;;11.20;;
41966;SDS011;27656;53.068;8.818;2022-08-19T02:26:12;16.13;;;10.53;;
41966;SDS011;27656;53.068;8.818;2022-08-19T02:28:38;15.63;;;10.63;;
41966;SDS011;27656;53.068;8.818;2022-08-19T02:31:10;20.70;;;11.30;;
41966;SDS011;27656;53.068;8.818;2022-08-19T02:33:38;18.97;;;11.40;;
41966;SDS011;27656;53.068;8.818;2022-08-19T02:36:05;19.17;;;12.77;;
41966;SDS011;27656;53.068;8.818;2022-08-19T02:38:33;20.33;;;12.17;;
41966;SDS011;27656;53.068;8.818;2022-08-19T02:41:02;19.37;;;11.73;;
41966;SDS011;27656;53.068;8.818;2022-08-19T02:43:32;16.10;;;11.67;;
41966;SDS011;27656;53.068;8.818;2022-08-19T02:46:10;16.80;;;12.13;;
41966;SDS011;27656;53.068;8.818;2022-08-19T02:48:44;17.20;;;11.63;;
41966;SDS011;27656;53.068;8.818;2022-08-19T02:51:15;21.80;;;12.30;;
41966;SDS011;27656;53.068;8.818;2022-08-19T02:53:42;20.23;;;12.30;;
41966;SDS011;27656;53.068;8.818;2022-08-19T02:56:09;22.77;;;10.80;;
41966;SDS011;27656;53.068;8.818;2022-08-19T02:58:35;23.13;;;12.50;;
41966;SDS011;27656;53.068;8.818;2022-08-19T03:01:03;20.03;;;12.07;;
41966;SDS011;27656;53.068;8.818;2022-08-19T03:03:30;21.03;;;12.03;;
41966;SDS011;27656;53.068;8.818;2022-08-19T03:06:07;16.00;;;10.57;;
41966;SDS011;27656;53.068;8.818;2022-08-19T03:08:40;19.17;;;12.13;;
41966;SDS011;27656;53.068;8.818;2022-08-19T03:11:15;16.80;;;11.90;;
41966;SDS011;27656;53.068;8.818;2022-08-19T03:13:43;16.53;;;11.70;;
41966;SDS011;27656;53.068;8.818;2022-08-19T03:16:11;19.33;;;13.13;;
41966;SDS011;27656;53.068;8.818;2022-08-19T03:18:38;20.00;;;12.33;;
41966;SDS011;27656;53.068;8.818;2022-08-19T03:21:05;19.07;;;11.23;;
41966;SDS011;27656;53.068;8.818;2022-08-19T03:23:37;20.00;;;11.67;;
41966;SDS011;27656;53.068;8.818;2022-08-19T03:26:04;14.73;;;11.17;;
41966;SDS011;27656;53.068;8.818;2022-08-19T03:28:43;18.97;;;11.43;;
41966;SDS011;27656;53.068;8.818;2022-08-19T03:31:23;17.97;;;10.73;;
41966;SDS011;27656;53.068;8.818;2022-08-19T03:34:14;18.33;;;10.80;;
41966;SDS011;27656;53.068;8.818;2022-08-19T03:36:43;18.00;;;11.73;;
41966;SDS011;27656;53.068;8.818;2022-08-19T03:39:11;14.07;;;10.80;;
41966;SDS011;27656;53.068;8.818;2022-08-19T03:41:39;16.43;;;10.47;;
41966;SDS011;27656;53.068;8.818;2022-08-19T03:44:15;12.47;;;9.83;;
41966;SDS011;27656;53.068;8.818;2022-08-19T03:46:55;16.00;;;11.30;;
41966;SDS011;27656;53.068;8.818;2022-08-19T03:49:27;14.33;;;10.80;;
41966;SDS011;27656;53.068;8.818;2022-08-19T03:51:56;18.33;;;12.53;;
41966;SDS011;27656;53.068;8.818;2022-08-19T03:54:24;21.23;;;12.43;;
41966;SDS011;27656;53.068;8.818;2022-08-19T03:56:51;15.93;;;11.67;;
41966;SDS011;27656;53.068;8.818;2022-08-19T03:59:30;17.70;;;13.10;;
41966;SDS011;27656;53.068;8.818;2022-08-19T04:02:00;22.80;;;13.90;;
41966;SDS011;27656;53.068;8.818;2022-08-19T04:04:28;20.73;;;14.57;;
41966;SDS011;27656;53.068;8.818;2022-08-19T04:06:57;21.90;;;15.87;;
41966;SDS011;27656;53.068;8.818;2022-08-19T04:09:23;23.63;;;15.90;;
41966;SDS011;27656;53.068;8.818;2022-08-19T04:11:51;24.73;;;17.83;;
41966;SDS011;27656;53.068;8.818;2022-08-19T04:14:21;26.03;;;16.17;;
41966;SDS011;27656;53.068;8.818;2022-08-19T04:16:50;22.33;;;15.43;;
41966;SDS011;27656;53.068;8.818;2022-08-19T04:19:17;22.53;;;14.43;;
41966;SDS011;27656;53.068;8.818;2022-08-19T04:21:45;21.30;;;14.63;;
41966;SDS011;27656;53.068;8.818;2022-08-19T04:24:13;23.97;;;15.57;;
41966;SDS011;27656;53.068;8.818;2022-08-19T04:26:40;23.60;;;15.07;;
41966;SDS011;27656;53.068;8.818;2022-08-19T04:29:08;27.43;;;16.63;;
41966;SDS011;27656;53.068;8.818;2022-08-19T04:31:38;19.53;;;14.70;;
41966;SDS011;27656;53.068;8.818;2022-08-19T04:34:06;23.27;;;14.63;;
41966;SDS011;27656;53.068;8.818;2022-08-19T04:36:37;23.40;;;14.23;;
41966;SDS011;27656;53.068;8.818;2022-08-19T04:39:05;19.13;;;13.30;;
41966;SDS011;27656;53.068;8.818;2022-08-19T04:41:33;19.57;;;13.33;;
41966;SDS011;27656;53.068;8.818;2022-08-19T04:44:19;17.40;;;12.33;;
41966;SDS011;27656;53.068;8.818;2022-08-19T04:46:45;22.20;;;13.03;;
41966;SDS011;27656;53.068;8.818;2022-08-19T04:49:17;20.57;;;12.53;;
41966;SDS011;27656;53.068;8.818;2022-08-19T04:51:45;17.63;;;12.03;;
41966;SDS011;27656;53.068;8.818;2022-08-19T04:54:16;18.93;;;12.87;;
41966;SDS011;27656;53.068;8.818;2022-08-19T04:57:03;17.37;;;12.90;;
41966;SDS011;27656;53.068;8.818;2022-08-19T04:59:32;18.47;;;12.33;;
41966;SDS011;27656;53.068;8.818;2022-08-19T05:01:59;19.97;;;12.97;;
41966;SDS011;27656;53.068;8.818;2022-08-19T05:04:26;26.13;;;14.50;;
41966;SDS011;27656;53.068;8.818;2022-08-19T05:06:54;19.30;;;13.20;;
41966;SDS011;27656;53.068;8.818;2022-08-19T05:09:26;17.87;;;12.97;;
41966;SDS011;27656;53.068;8.818;2022-08-19T05:11:53;21.30;;;13.63;;
41966;SDS011;27656;53.068;8.818;2022-08-19T05:14:19;19.30;;;14.13;;
41966;SDS011;27656;53.068;8.818;2022-08-19T05:16:47;22.17;;;14.30;;
41966;SDS011;27656;53.068;8.818;2022-08-19T05:19:13;26.40;;;14.77;;
41966;SDS011;27656;53.068;8.818;2022-08-19T05:21:59;23.27;;;14.77;;
41966;SDS011;27656;53.068;8.818;2022-08-19T05:24:44;29.60;;;15.57;;
41966;SDS011;27656;53.068;8.818;2022-08-19T05:27:31;21.43;;;14.07;;
41966;SDS011;27656;53.068;8.818;2022-08-19T05:29:58;26.67;;;15.53;;
41966;SDS011;27656;53.068;8.818;2022-08-19T05:32:25;24.80;;;15.23;;
41966;SDS011;27656;53.068;8.818;2022-08-19T05:34:52;24.30;;;15.53;;
41966;SDS011;27656;53.068;8.818;2022-08-19T05:37:18;29.50;;;16.43;;
41966;SDS011;27656;53.068;8.818;2022-08-19T05:39:45;25.20;;;15.37;;
41966;SDS011;27656;53.068;8.818;2022-08-19T05:42:16;25.97;;;16.23;;
41966;SDS011;27656;53.068;8.818;2022-08-19T05:44:43;23.40;;;14.97;;
41966;SDS011;27656;53.068;8.818;2022-08-19T05:47:11;23.07;;;14.70;;
41966;SDS011;27656;53.068;8.818;2022-08-19T05:49:38;29.00;;;17.17;;
41966;SDS011;27656;53.068;8.818;2022-08-19T05:52:06;30.93;;;15.90;;
41966;SDS011;27656;53.068;8.818;2022-08-19T05:54:34;27.23;;;16.70;;
41966;SDS011;27656;53.068;8.818;2022-08-19T05:57:02;34.97;;;16.87;;
41966;SDS011;27656;53.068;8.818;2022-08-19T05:59:28;27.80;;;17.20;;
41966;SDS011;27656;53.068;8.818;2022-08-19T06:01:56;31.60;;;16.63;;
41966;SDS011;27656;53.068;8.818;2022-08-19T06:04:23;29.20;;;16.20;;
41966;SDS011;27656;53.068;8.818;2022-08-19T06:06:51;31.47;;;16.93;;
41966;SDS011;27656;53.068;8.818;2022-08-19T06:09:19;25.30;;;16.03;;
41966;SDS011;27656;53.068;8.818;2022-08-19T06:11:47;32.53;;;20.77;;
41966;SDS011;27656;53.068;8.818;2022-08-19T06:14:22;36.10;;;20.57;;
41966;SDS011;27656;53.068;8.818;2022-08-19T06:16:53;32.23;;;19.33;;
41966;SDS011;27656;53.068;8.818;2022-08-19T06:19:20;29.47;;;19.00;;
41966;SDS011;27656;53.068;8.818;2022-08-19T06:21:48;34.87;;;19.73;;
41966;SDS011;27656;53.068;8.818;2022-08-19T06:24:18;33.00;;;18.23;;
41966;SDS011;27656;53.068;8.818;2022-08-19T06:26:50;38.30;;;17.70;;
41966;SDS011;27656;53.068;8.818;2022-08-19T06:29:23;35.73;;;17.53;;
41966;SDS011;27656;53.068;8.818;2022-08-19T06:31:52;35.07;;;19.07;;
41966;SDS011;27656;53.068;8.818;2022-08-19T06:34:20;36.37;;;17.60;;
41966;SDS011;27656;53.068;8.818;2022-08-19T06:36:47;32.67;;;17.20;;
41966;SDS011;27656;53.068;8.818;2022-08-19T06:39:19;31.27;;;16.50;;
41966;SDS011;27656;53.068;8.818;2022-08-19T06:41:49;29.53;;;16.93;;
41966;SDS011;27656;53.068;8.818;2022-08-19T06:44:22;28.57;;;16.97;;
41966;SDS011;27656;53.068;8.818;2022-08-19T06:46:52;30.07;;;17.30;;
41966;SDS011;27656;53.068;8.818;2022-08-19T06:49:20;29.70;;;16.07;;
41966;SDS011;27656;53.068;8.818;2022-08-19T06:51:47;28.37;;;17.00;;
41966;SDS011;27656;53.068;8.818;2022-08-19T06:54:17;27.57;;;14.73;;
41966;SDS011;27656;53.068;8.818;2022-08-19T06:56:45;29.47;;;15.00;;
41966;SDS011;27656;53.068;8.818;2022-08-19T06:59:13;26.47;;;15.57;;
41966;SDS011;27656;53.068;8.818;2022-08-19T07:01:43;26.77;;;13.60;;
41966;SDS011;27656;53.068;8.818;2022-08-19T07:04:14;21.43;;;13.70;;
41966;SDS011;27656;53.068;8.818;2022-08-19T07:06:44;22.73;;;13.23;;
41966;SDS011;27656;53.068;8.818;2022-08-19T07:09:20;24.47;;;12.00;;
41966;SDS011;27656;53.068;8.818;2022-08-19T07:11:47;26.50;;;12.40;;
41966;SDS011;27656;53.068;8.818;2022-08-19T07:14:16;18.97;;;11.87;;
41966;SDS011;27656;53.068;8.818;2022-08-19T07:16:46;19.27;;;11.60;;
41966;SDS011;27656;53.068;8.818;2022-08-19T07:19:14;12.90;;;9.00;;
41966;SDS011;27656;53.068;8.818;2022-08-19T07:21:44;22.53;;;12.80;;
41966;SDS011;27656;53.068;8.818;2022-08-19T07:24:12;17.13;;;10.23;;
41966;SDS011;27656;53.068;8.818;2022-08-19T07:26:40;17.30;;;10.73;;
41966;SDS011;27656;53.068;8.818;2022-08-19T07:29:09;17.93;;;10.93;;
41966;SDS011;27656;53.068;8.818;2022-08-19T07:31:36;17.90;;;10.37;;
41966;SDS011;27656;53.068;8.818;2022-08-19T07:34:04;15.40;;;8.63;;
41966;SDS011;27656;53.068;8.818;2022-08-19T07:36:35;18.23;;;10.83;;
41966;SDS011;27656;53.068;8.818;2022-08-19T07:39:05;17.57;;;11.47;;
41966;SDS011;27656;53.068;8.818;2022-08-19T07:41:34;13.23;;;8.80;;
41966;SDS011;27656;53.068;8.818;2022-08-19T07:44:03;12.30;;;8.50;;
41966;SDS011;27656;53.068;8.818;2022-08-19T07:46:31;9.47;;;5.80;;
41966;SDS011;27656;53.068;8.818;2022-08-19T07:48:58;14.87;;;8.13;;
41966;SDS011;27656;53.068;8.818;2022-08-19T07:51:26;6.40;;;4.83;;
41966;SDS011;27656;53.068;8.818;2022-08-19T07:54:02;6.77;;;4.10;;
41966;SDS011;27656;53.068;8.818;2022-08-19T07:56:29;5.47;;;4.23;;
41966;SDS011;27656;53.068;8.818;2022-08-19T07:58:55;10.00;;;5.33;;
41966;SDS011;27656;53.068;8.818;2022-08-19T08:01:27;8.17;;;4.90;;
41966;SDS011;27656;53.068;8.818;2022-08-19T08:03:54;9.10;;;5.03;;
41966;SDS011;27656;53.068;8.818;2022-08-19T08:06:40;8.27;;;5.53;;
41966;SDS011;27656;53.068;8.818;2022-08-19T08:09:36;10.97;;;6.57;;
41966;SDS011;27656;53.068;8.818;2022-08-19T08:12:09;7.53;;;4.67;;
41966;SDS011;27656;53.068;8.818;2022-08-19T08:14:58;8.23;;;4.47;;
41966;SDS011;27656;53.068;8.818;2022-08-19T08:17:28;8.70;;;3.97;;
41966;SDS011;27656;53.068;8.818;2022-08-19T08:20:15;4.00;;;3.60;;
41966;SDS011;27656;53.068;8.818;2022-08-19T08:22:45;7.77;;;3.83;;
41966;SDS011;27656;53.068;8.818;2022-08-19T08:25:31;6.83;;;3.70;;
41966;SDS011;27656;53.068;8.818;2022-08-19T08:28:00;7.43;;;4.67;;
41966;SDS011;27656;53.068;8.818;2022-08-19T08:30:28;6.50;;;3.90;;
41966;SDS011;27656;53.068;8.818;2022-08-19T08:32:58;8.23;;;4.33;;
41966;SDS011;27656;53.068;8.818;2022-08-19T08:35:27;5.77;;;3.23;;
41966;SDS011;27656;53.068;8.818;2022-08-19T08:37:54;6.40;;;4.03;;
41966;SDS011;27656;53.068;8.818;2022-08-19T08:48:40;5.40;;;3.43;;
41966;SDS011;27656;53.068;8.818;2022-08-19T08:51:25;4.90;;;3.50;;
41966;SDS011;27656;53.068;8.818;2022-08-19T08:54:00;7.27;;;3.33;;
41966;SDS011;27656;53.068;8.818;2022-08-19T08:56:28;8.20;;;4.00;;
41966;SDS011;27656;53.068;8.818;2022-08-19T08:59:34;5.03;;;3.97;;
41966;SDS011;27656;53.068;8.818;2022-08-19T09:01:56;8.40;;;4.00;;
41966;SDS011;27656;53.068;8.818;2022-08-19T09:04:23;5.80;;;3.40;;
41966;SDS011;27656;53.068;8.818;2022-08-19T09:06:52;7.27;;;4.17;;
41966;SDS011;27656;53.068;8.818;2022-08-19T09:09:24;6.40;;;3.50;;
41966;SDS011;27656;53.068;8.818;2022-08-19T09:14:48;6.27;;;3.20;;
41966;SDS011;27656;53.068;8.818;2022-08-19T09:17:18;9.13;;;3.80;;
41966;SDS011;27656;53.068;8.818;2022-08-19T09:19:58;6.33;;;3.93;;
41966;SDS011;27656;53.068;8.818;2022-08-19T09:22:35;5.20;;;4.00;;
41966;SDS011;27656;53.068;8.818;2022-08-19T09:25:04;11.73;;;3.80;;
41966;SDS011;27656;53.068;8.818;2022-08-19T09:27:31;4.03;;;3.03;;
41966;SDS011;27656;53.068;8.818;2022-08-19T09:30:09;7.83;;;4.40;;
41966;SDS011;27656;53.068;8.818;2022-08-19T09:32:43;8.73;;;4.60;;
41966;SDS011;27656;53.068;8.818;2022-08-19T09:35:11;6.83;;;4.17;;
41966;SDS011;27656;53.068;8.818;2022-08-19T09:37:38;5.50;;;3.10;;
41966;SDS011;27656;53.068;8.818;2022-08-19T09:40:06;7.57;;;3.53;;
41966;SDS011;27656;53.068;8.818;2022-08-19T09:42:34;7.40;;;4.00;;
41966;SDS011;27656;53.068;8.818;2022-08-19T09:45:00;2.80;;;2.20;;
41966;SDS011;27656;53.068;8.818;2022-08-19T09:47:30;3.03;;;2.20;;
41966;SDS011;27656;53.068;8.818;2022-08-19T09:49:58;6.53;;;2.90;;
41966;SDS011;27656;53.068;8.818;2022-08-19T09:52:24;3.53;;;2.30;;
41966;SDS011;27656;53.068;8.818;2022-08-19T09:54:57;3.60;;;1.93;;
41966;SDS011;27656;53.068;8.818;2022-08-19T09:57:24;3.87;;;2.37;;
41966;SDS011;27656;53.068;8.818;2022-08-19T09:59:51;2.83;;;2.10;;
41966;SDS011;27656;53.068;8.818;2022-08-19T10:02:17;3.90;;;2.10;;
41966;SDS011;27656;53.068;8.818;2022-08-19T10:04:47;5.20;;;2.17;;
41966;SDS011;27656;53.068;8.818;2022-08-19T10:07:32;2.87;;;1.80;;
41966;SDS011;27656;53.068;8.818;2022-08-19T10:10:03;2.97;;;1.93;;
41966;SDS011;27656;53.068;8.818;2022-08-19T10:12:33;4.17;;;2.40;;
41966;SDS011;27656;53.068;8.818;2022-08-19T10:15:00;3.80;;;2.27;;
41966;SDS011;27656;53.068;8.818;2022-08-19T10:17:26;4.90;;;2.07;;
41966;SDS011;27656;53.068;8.818;2022-08-19T10:19:58;3.33;;;2.30;;
41966;SDS011;27656;53.068;8.818;2022-08-19T10:22:26;5.23;;;2.50;;
41966;SDS011;27656;53.068;8.818;2022-08-19T10:24:52;3.70;;;2.40;;
41966;SDS011;27656;53.068;8.818;2022-08-19T10:27:19;4.90;;;2.27;;
41966;SDS011;27656;53.068;8.818;2022-08-19T10:29:46;2.27;;;2.00;;
41966;SDS011;27656;53.068;8.818;2022-08-19T10:32:14;3.30;;;2.22;;
41966;SDS011;27656;53.068;8.818;2022-08-19T10:34:41;4.97;;;2.15;;
41966;SDS011;27656;53.068;8.818;2022-08-19T10:37:14;5.95;;;1.92;;
41966;SDS011;27656;53.068;8.818;2022-08-19T10:39:43;6.35;;;2.03;;
41966;SDS011;27656;53.068;8.818;2022-08-19T10:42:14;11.95;;;3.28;;
41966;SDS011;27656;53.068;8.818;2022-08-19T10:44:42;5.43;;;2.10;;
41966;SDS011;27656;53.068;8.818;2022-08-19T10:47:09;3.92;;;2.10;;
41966;SDS011;27656;53.068;8.818;2022-08-19T10:49:50;4.00;;;2.20;;
41966;SDS011;27656;53.068;8.818;2022-08-19T10:52:38;7.95;;;2.10;;
41966;SDS011;27656;53.068;8.818;2022-08-19T10:55:15;3.03;;;1.75;;
41966;SDS011;27656;53.068;8.818;2022-08-19T10:58:00;5.07;;;2.25;;
41966;SDS011;27656;53.068;8.818;2022-08-19T11:00:28;4.75;;;1.85;;
41966;SDS011;27656;53.068;8.818;2022-08-19T11:02:55;8.43;;;2.72;;
41966;SDS011;27656;53.068;8.818;2022-08-19T11:05:21;3.83;;;1.40;;
41966;SDS011;27656;53.068;8.818;2022-08-19T11:07:49;8.73;;;1.80;;
41966;SDS011;27656;53.068;8.818;2022-08-19T11:10:17;4.15;;;1.95;;
41966;SDS011;27656;53.068;8.818;2022-08-19T11:12:47;7.18;;;1.80;;
41966;SDS011;27656;53.068;8.818;2022-08-19T11:15:14;3.85;;;1.50;;
41966;SDS011;27656;53.068;8.818;2022-08-19T11:17:41;5.70;;;1.40;;
41966;SDS011;27656;53.068;8.818;2022-08-19T11:20:10;6.75;;;1.38;;
41966;SDS011;27656;53.068;8.818;2022-08-19T11:22:38;3.08;;;1.42;;
41966;SDS011;27656;53.068;8.818;2022-08-19T11:25:07;2.47;;;1.58;;
41966;SDS011;27656;53.068;8.818;2022-08-19T11:27:39;3.42;;;1.42;;
41966;SDS011;27656;53.068;8.818;2022-08-19T11:30:08;3.03;;;1.40;;
41966;SDS011;27656;53.068;8.818;2022-08-19T11:32:38;2.33;;;1.13;;
41966;SDS011;27656;53.068;8.818;2022-08-19T11:35:10;1.15;;;0.90;;
41966;SDS011;27656;53.068;8.818;2022-08-19T11:37:37;5.78;;;1.13;;
41966;SDS011;27656;53.068;8.818;2022-08-19T11:40:05;2.83;;;1.42;;
41966;SDS011;27656;53.068;8.818;2022-08-19T11:42:32;4.43;;;1.20;;
41966;SDS011;27656;53.068;8.818;2022-08-19T11:45:17;5.15;;;1.13;;
41966;SDS011;27656;53.068;8.818;2022-08-19T11:47:43;2.88;;;1.10;;
41966;SDS011;27656;53.068;8.818;2022-08-19T11:50:10;2.10;;;1.10;;
41966;SDS011;27656;53.068;8.818;2022-08-19T11:52:36;3.83;;;1.20;;
41966;SDS011;27656;53.068;8.818;2022-08-19T11:55:03;3.83;;;1.33;;
41966;SDS011;27656;53.068;8.818;2022-08-19T11:57:30;2.05;;;1.02;;
41966;SDS011;27656;53.068;8.818;2022-08-19T11:59:56;3.50;;;1.33;;
41966;SDS011;27656;53.068;8.818;2022-08-19T12:02:23;2.97;;;1.52;;
41966;SDS011;27656;53.068;8.818;2022-08-19T12:04:49;2.92;;;1.35;;
41966;SDS011;27656;53.068;8.818;2022-08-19T12:07:16;4.82;;;1.50;;
41966;SDS011;27656;53.068;8.818;2022-08-19T12:09:43;3.80;;;1.30;;
41966;SDS011;27656;53.068;8.818;2022-08-19T12:12:11;5.95;;;1.40;;
41966;SDS011;27656;53.068;8.818;2022-08-19T12:14:37;2.15;;;1.05;;
41966;SDS011;27656;53.068;8.818;2022-08-19T12:17:05;6.35;;;1.20;;
41966;SDS011;27656;53.068;8.818;2022-08-19T12:19:33;2.75;;;1.08;;
41966;SDS011;27656;53.068;8.818;2022-08-19T12:22:01;3.45;;;0.90;;
41966;SDS011;27656;53.068;8.818;2022-08-19T12:24:32;2.83;;;1.10;;
41966;SDS011;27656;53.068;8.818;2022-08-19T12:26:59;4.32;;;1.25;;
41966;SDS011;27656;53.068;8.818;2022-08-19T12:29:28;1.80;;;0.98;;
41966;SDS011;27656;53.068;8.818;2022-08-19T12:31:56;3.38;;;1.10;;
41966;SDS011;27656;53.068;8.818;2022-08-19T12:34:31;1.13;;;0.80;;
41966;SDS011;27656;53.068;8.818;2022-08-19T12:36:58;2.70;;;0.80;;
41966;SDS011;27656;53.068;8.818;2022-08-19T12:39:27;4.35;;;1.30;;
41966;SDS011;27656;53.068;8.818;2022-08-19T12:41:54;3.28;;;1.08;;
41966;SDS011;27656;53.068;8.818;2022-08-19T12:44:21;2.00;;;1.20;;
41966;SDS011;27656;53.068;8.818;2022-08-19T12:46:57;4.18;;;1.05;;
41966;SDS011;27656;53.068;8.818;2022-08-19T12:49:24;5.50;;;1.23;;
41966;SDS011;27656;53.068;8.818;2022-08-19T12:52:10;2.28;;;1.30;;
41966;SDS011;27656;53.068;8.818;2022-08-19T12:54:41;2.50;;;1.20;;
41966;SDS011;27656;53.068;8.818;2022-08-19T12:57:09;4.80;;;1.23;;
41966;SDS011;27656;53.068;8.818;2022-08-19T12:59:36;2.05;;;1.00;;
41966;SDS011;27656;53.068;8.818;2022-08-19T13:02:04;3.05;;;1.02;;
41966;SDS011;27656;53.068;8.818;2022-08-19T13:04:32;5.70;;;1.02;;
41966;SDS011;27656;53.068;8.818;2022-08-19T13:07:02;7.25;;;1.23;;
41966;SDS011;27656;53.068;8.818;2022-08-19T13:09:29;3.58;;;1.13;;
41966;SDS011;27656;53.068;8.818;2022-08-19T13:11:55;7.90;;;1.20;;
41966;SDS011;27656;53.068;8.818;2022-08-19T13:14:22;3.45;;;0.80;;
41966;SDS011;27656;53.068;8.818;2022-08-19T13:16:52;1.98;;;0.90;;
41966;SDS011;27656;53.068;8.818;2022-08-19T13:19:18;2.30;;;0.60;;
41966;SDS011;27656;53.068;8.818;2022-08-19T13:21:48;2.28;;;0.90;;
41966;SDS011;27656;53.068;8.818;2022-08-19T13:24:25;0.63;;;0.57;;
41966;SDS011;27656;53.068;8.818;2022-08-19T13:26:59;0.77;;;0.43;;
41966;SDS011;27656;53.068;8.818;2022-08-19T13:29:26;1.23;;;0.65;;
41966;SDS011;27656;53.068;8.818;2022-08-19T13:32:11;1.92;;;0.70;;
41966;SDS011;27656;53.068;8.818;2022-08-19T13:34:56;0.73;;;0.55;;
41966;SDS011;27656;53.068;8.818;2022-08-19T13:37:23;0.80;;;0.50;;
41966;SDS011;27656;53.068;8.818;2022-08-19T13:40:08;0.73;;;0.68;;
41966;SDS011;27656;53.068;8.818;2022-08-19T13:42:42;1.48;;;0.70;;
41966;SDS011;27656;53.068;8.818;2022-08-19T13:45:10;1.75;;;0.70;;
41966;SDS011;27656;53.068;8.818;2022-08-19T13:47:37;2.33;;;0.80;;
41966;SDS011;27656;53.068;8.818;2022-08-19T13:50:09;3.47;;;0.82;;
41966;SDS011;27656;53.068;8.818;2022-08-19T13:52:37;1.50;;;0.95;;
41966;SDS011;27656;53.068;8.818;2022-08-19T13:55:05;1.70;;;1.02;;
41966;SDS011;27656;53.068;8.818;2022-08-19T13:57:32;1.48;;;0.90;;
41966;SDS011;27656;53.068;8.818;2022-08-19T13:59:59;1.98;;;1.05;;
41966;SDS011;27656;53.068;8.818;2022-08-19T14:02:25;1.05;;;0.80;;
41966;SDS011;27656;53.068;8.818;2022-08-19T14:04:52;2.55;;;1.10;;
41966;SDS011;27656;53.068;8.818;2022-08-19T14:07:20;1.58;;;1.13;;
41966;SDS011;27656;53.068;8.818;2022-08-19T14:09:49;2.78;;;1.10;;
41966;SDS011;27656;53.068;8.818;2022-08-19T14:12:20;3.92;;;1.17;;
41966;SDS011;27656;53.068;8.818;2022-08-19T14:14:54;2.67;;;1.05;;
41966;SDS011;27656;53.068;8.818;2022-08-19T14:17:20;3.42;;;1.00;;
41966;SDS011;27656;53.068;8.818;2022-08-19T14:19:47;2.30;;;1.20;;
41966;SDS011;27656;53.068;8.818;2022-08-19T14:22:14;3.15;;;1.15;;
41966;SDS011;27656;53.068;8.818;2022-08-19T14:24:47;1.50;;;1.00;;
41966;SDS011;27656;53.068;8.818;2022-08-19T14:27:14;3.33;;;1.38;;
41966;SDS011;27656;53.068;8.818;2022-08-19T14:29:40;2.72;;;1.10;;
41966;SDS011;27656;53.068;8.818;2022-08-19T14:32:07;1.63;;;1.00;;
41966;SDS011;27656;53.068;8.818;2022-08-19T14:34:41;2.13;;;0.90;;
41966;SDS011;27656;53.068;8.818;2022-08-19T14:37:08;1.83;;;1.05;;
41966;SDS011;27656;53.068;8.818;2022-08-19T14:39:42;4.28;;;1.20;;
41966;SDS011;27656;53.068;8.818;2022-08-19T14:42:10;3.58;;;1.10;;
41966;SDS011;27656;53.068;8.818;2022-08-19T14:44:37;1.25;;;0.85;;
41966;SDS011;27656;53.068;8.818;2022-08-19T14:47:03;1.42;;;1.10;;
41966;SDS011;27656;53.068;8.818;2022-08-19T14:49:30;6.40;;;1.20;;
41966;SDS011;27656;53.068;8.818;2022-08-19T14:52:08;1.80;;;1.30;;
41966;SDS011;27656;53.068;8.818;2022-08-19T14:54:34;3.95;;;1.30;;
41966;SDS011;27656;53.068;8.818;2022-08-19T14:57:01;3.38;;;1.48;;
41966;SDS011;27656;53.068;8.818;2022-08-19T14:59:27;3.85;;;1.23;;
41966;SDS011;27656;53.068;8.818;2022-08-19T15:01:54;5.30;;;1.20;;
41966;SDS011;27656;53.068;8.818;2022-08-19T15:04:21;1.17;;;1.08;;